Time;durP1;ratioP1;P1;durP2;ratioP2;P2;SDS_P1;SDS_P2;PMS_P1;PMS_P2;Temp;Humidity;BMP_temperature;BMP_pressure;BME280_temperature;BME280_humidity;BME280_pressure;Samples;Min_cycle;Max_cycle;Signal;HPM_P1;HPM_P2
2023/05/01 00:00:09;;;;;;;8.97;5.23;;;;;;;10.87;88.39;101741.22;4915276;29;20021;-87
2023/05/01 00:02:35;;;;;;;7.93;5.20;;;;;;;10.91;91.97;101739.47;4915331;29;20723;-87
2023/05/01 00:05:01;;;;;;;6.85;4.82;;;;;;;10.97;93.04;101742.88;4924306;29;20052;-87
2023/05/01 00:07:29;;;;;;;7.22;4.72;;;;;;;10.97;92.23;101739.41;4915082;29;20542;-87
2023/05/01 00:09:55;;;;;;;10.20;5.30;;;;;;;10.97;87.62;101727.28;4914668;29;20103;-87
2023/05/01 00:12:21;;;;;;;8.50;4.93;;;;;;;10.99;86.08;101722.06;4928421;29;20020;-87
2023/05/01 00:14:46;;;;;;;8.75;4.85;;;;;;;11.01;90.00;101721.19;4913562;29;20020;-87
2023/05/01 00:17:11;;;;;;;8.10;4.88;;;;;;;11.02;86.82;101720.31;4918449;29;20110;-87
2023/05/01 00:19:37;;;;;;;9.17;5.17;;;;;;;11.00;86.68;101713.41;4919525;29;20123;-88
2023/05/01 00:22:02;;;;;;;7.88;4.85;;;;;;;11.05;86.72;101716.84;4924721;29;20295;-87
2023/05/01 00:24:27;;;;;;;8.30;4.80;;;;;;;11.07;89.12;101715.91;4908503;29;20063;-87
2023/05/01 00:26:53;;;;;;;9.38;4.95;;;;;;;11.07;87.81;101715.06;4908131;29;20031;-87
2023/05/01 00:29:18;;;;;;;8.80;4.63;;;;;;;11.06;85.42;101715.94;4925555;29;20043;-88
2023/05/01 00:31:44;;;;;;;9.13;4.93;;;;;;;11.06;86.69;101706.41;4918275;29;20111;-88
2023/05/01 00:34:10;;;;;;;6.47;4.88;;;;;;;11.06;90.78;101702.97;4912025;29;20066;-88
2023/05/01 00:36:35;;;;;;;8.50;4.82;;;;;;;11.06;92.09;101702.97;4916463;29;20028;-89
2023/05/01 00:39:06;;;;;;;8.15;5.07;;;;;;;11.04;91.72;101702.16;4904531;29;20539;-88
2023/05/01 00:41:31;;;;;;;7.72;5.05;;;;;;;11.04;92.92;101702.16;4920005;29;20032;-88
2023/05/01 00:43:57;;;;;;;8.65;5.10;;;;;;;11.00;92.06;101690.94;4901385;29;20024;-88
2023/05/01 00:46:23;;;;;;;8.23;4.88;;;;;;;11.01;92.83;101684.88;4910359;29;20034;-88
2023/05/01 00:48:49;;;;;;;10.13;5.35;;;;;;;11.03;92.39;101687.44;4935547;29;20256;-88
2023/05/01 00:51:14;;;;;;;8.20;5.03;;;;;;;11.03;89.61;101682.25;4937131;29;20144;-88
2023/05/01 00:53:42;;;;;;;9.48;5.60;;;;;;;11.00;89.31;101677.97;4917517;29;20023;-88
2023/05/01 00:56:09;;;;;;;9.13;5.07;;;;;;;11.04;88.27;101683.97;4926331;29;20318;-88
2023/05/01 00:58:36;;;;;;;10.70;5.55;;;;;;;10.99;90.70;101668.44;4937512;29;20031;-88
2023/05/01 01:01:04;;;;;;;7.18;4.90;;;;;;;11.04;89.23;101676.19;4931118;29;20019;-88
2023/05/01 01:03:30;;;;;;;8.82;5.13;;;;;;;11.05;91.99;101676.16;4906663;29;20059;-88
2023/05/01 01:06:21;;;;;;;8.25;5.00;;;;;;;11.04;88.21;101674.47;4933858;29;20516;-88
2023/05/01 01:09:24;;;;;;;10.07;4.95;;;;;;;11.06;90.44;101669.22;4937497;29;20082;-88
2023/05/01 01:12:14;;;;;;;7.10;4.68;;;;;;;11.06;90.60;101664.03;4926662;29;20374;-88
2023/05/01 01:14:52;;;;;;;8.52;4.80;;;;;;;11.05;92.26;101662.34;4934107;29;20034;-88
2023/05/01 01:17:30;;;;;;;6.47;4.25;;;;;;;11.02;90.91;101660.66;4922937;29;20036;-88
2023/05/01 01:20:20;;;;;;;11.80;5.10;;;;;;;11.01;88.13;101656.31;4907095;29;20020;-88
2023/05/01 01:22:57;;;;;;;6.80;4.50;;;;;;;11.00;91.30;101651.16;4918506;29;20032;-88
2023/05/01 01:25:26;;;;;;;8.45;4.90;;;;;;;11.03;91.55;101656.31;4935750;29;20024;-88
2023/05/01 01:28:22;;;;;;;8.75;4.85;;;;;;;11.00;88.20;101651.16;4912735;29;20131;-88
2023/05/01 01:31:12;;;;;;;8.38;4.47;;;;;;;11.00;90.49;101648.56;4932613;29;20114;-88
2023/05/01 01:34:00;;;;;;;7.78;4.50;;;;;;;10.95;91.25;101640.84;4931339;29;20042;-88
2023/05/01 01:36:53;;;;;;;7.80;4.63;;;;;;;10.98;90.95;101645.16;4910114;29;20271;-88
2023/05/01 01:39:25;;;;;;;8.00;4.60;;;;;;;10.94;91.28;101633.06;4935968;29;20032;-88
2023/05/01 01:41:53;;;;;;;8.68;4.80;;;;;;;10.89;88.46;101630.53;4913660;29;20039;-88
2023/05/01 01:44:29;;;;;;;6.72;4.65;;;;;;;10.89;91.08;101627.09;4917245;29;20508;-88
2023/05/01 01:46:56;;;;;;;8.27;4.93;;;;;;;10.87;92.26;101627.09;4908087;29;20488;-88
2023/05/01 01:49:25;;;;;;;11.05;4.72;;;;;;;10.83;91.22;101620.25;4916978;29;20031;-88
2023/05/01 01:51:52;;;;;;;8.80;4.63;;;;;;;10.75;91.33;101606.50;4917095;29;20039;-88
2023/05/01 01:54:29;;;;;;;7.88;4.57;;;;;;;10.73;91.02;101600.47;4934741;29;20043;-88
2023/05/01 01:56:58;;;;;;;7.93;4.35;;;;;;;10.74;91.28;101603.94;4935105;29;20035;-88
2023/05/01 01:59:25;;;;;;;9.82;5.00;;;;;;;10.74;91.97;101609.97;4931871;29;20038;-88
2023/05/01 02:01:52;;;;;;;8.35;4.70;;;;;;;10.74;92.08;101607.38;4929217;29;20034;-88
2023/05/01 02:04:19;;;;;;;9.13;4.70;;;;;;;10.69;92.10;101594.50;4917709;29;20403;-88
2023/05/01 02:06:46;;;;;;;10.63;4.82;;;;;;;10.68;87.96;101597.94;4905873;29;20445;-89
2023/05/01 02:09:15;;;;;;;8.13;4.85;;;;;;;10.71;92.61;101591.88;4911980;29;20020;-88
2023/05/01 02:11:41;;;;;;;8.93;4.80;;;;;;;10.67;91.97;101595.38;4932507;29;20038;-88
2023/05/01 02:14:09;;;;;;;10.02;5.78;;;;;;;10.65;92.52;101586.75;4920782;29;20027;-88
2023/05/01 02:16:35;;;;;;;10.05;4.63;;;;;;;10.67;90.86;101590.19;4935712;29;20023;-88
2023/05/01 02:19:03;;;;;;;8.88;4.90;;;;;;;10.66;91.64;101589.31;4911306;29;20030;-88
2023/05/01 02:21:30;;;;;;;9.55;4.78;;;;;;;10.65;91.83;101582.41;4906582;29;20028;-88
2023/05/01 02:23:57;;;;;;;11.07;5.00;;;;;;;10.65;87.10;101584.16;4906076;29;20588;-88
2023/05/01 02:26:25;;;;;;;12.15;4.82;;;;;;;10.66;91.15;101580.69;4933480;29;20031;-88
2023/05/01 02:28:51;;;;;;;9.45;5.07;;;;;;;10.64;88.06;101575.50;4928468;29;20058;-88
2023/05/01 02:31:16;;;;;;;8.25;4.90;;;;;;;10.67;89.41;101574.63;4912177;29;20032;-88
2023/05/01 02:33:41;;;;;;;7.65;4.70;;;;;;;10.65;89.87;101574.63;4899515;29;20123;-89
2023/05/01 02:36:07;;;;;;;10.57;5.43;;;;;;;10.63;86.71;101567.78;4916658;29;20473;-88
2023/05/01 02:38:32;;;;;;;11.77;5.05;;;;;;;10.67;90.27;101569.44;4916583;29;20292;-88
2023/05/01 02:41:00;;;;;;;6.97;4.45;;;;;;;10.64;90.60;101567.72;4917035;29;20020;-88
2023/05/01 02:43:28;;;;;;;8.45;4.82;;;;;;;10.66;91.32;101570.31;4917575;29;20098;-88
2023/05/01 02:45:57;;;;;;;7.57;4.60;;;;;;;10.62;92.42;101566.06;4935236;29;20028;-88
2023/05/01 02:48:26;;;;;;;10.55;4.97;;;;;;;10.62;91.85;101558.28;4917858;29;20036;-88
2023/05/01 02:50:54;;;;;;;8.90;4.95;;;;;;;10.63;93.18;101558.28;4917914;29;20028;-88
2023/05/01 02:53:21;;;;;;;9.50;5.10;;;;;;;10.59;91.45;101550.53;4908239;29;20036;-88
2023/05/01 02:55:47;;;;;;;12.18;5.25;;;;;;;10.61;89.13;101547.06;4931899;29;21058;-88
2023/05/01 02:58:19;;;;;;;8.27;4.90;;;;;;;10.60;91.30;101542.75;4935042;29;20031;-88
2023/05/01 03:00:47;;;;;;;10.00;5.28;;;;;;;10.63;93.47;101536.66;4935038;29;20034;-88
2023/05/01 03:03:12;;;;;;;8.43;4.97;;;;;;;10.62;91.03;101542.72;4934403;29;20493;-88
2023/05/01 03:05:38;;;;;;;10.55;5.35;;;;;;;10.57;90.14;101531.56;4918868;29;20121;-89
2023/05/01 03:08:04;;;;;;;8.75;4.90;;;;;;;10.57;91.72;101532.44;4897652;29;20032;-88
2023/05/01 03:10:30;;;;;;;8.65;5.68;;;;;;;10.56;89.97;101528.13;4927821;29;20036;-88
2023/05/01 03:12:55;;;;;;;9.68;4.93;;;;;;;10.59;92.55;101534.97;4924714;29;20055;-88
2023/05/01 03:15:20;;;;;;;10.80;5.45;;;;;;;10.55;91.74;101528.13;4908540;29;20132;-88
2023/05/01 03:17:46;;;;;;;12.48;5.60;;;;;;;10.54;92.20;101529.84;4918905;29;20548;-88
2023/05/01 03:20:11;;;;;;;11.48;5.32;;;;;;;10.55;89.48;101525.53;4922553;29;20244;-88
2023/05/01 03:22:37;;;;;;;10.63;5.82;;;;;;;10.51;91.86;101516.91;4913058;29;20110;-88
2023/05/01 03:25:03;;;;;;;11.57;5.53;;;;;;;10.54;91.30;101519.50;4923143;29;20030;-88
2023/05/01 03:27:29;;;;;;;10.20;5.43;;;;;;;10.53;89.87;101525.53;4925188;29;20115;-88
2023/05/01 03:29:55;;;;;;;11.93;5.20;;;;;;;10.53;91.94;101516.91;4921222;29;20397;-88
2023/05/01 03:32:21;;;;;;;8.32;5.03;;;;;;;10.52;89.54;101516.03;4902870;29;20465;-88
2023/05/01 03:34:46;;;;;;;10.35;5.68;;;;;;;10.48;88.49;101505.75;4918538;29;20050;-88
2023/05/01 03:37:12;;;;;;;9.50;5.68;;;;;;;10.50;90.00;101511.78;4920181;29;20035;-88
2023/05/01 03:39:37;;;;;;;12.68;5.30;;;;;;;10.49;87.79;101507.47;4908454;29;20034;-88
2023/05/01 03:42:04;;;;;;;10.52;5.35;;;;;;;10.49;90.08;101507.47;4907367;29;20122;-88
2023/05/01 03:44:29;;;;;;;11.23;5.75;;;;;;;10.47;91.33;101501.44;4903808;29;20028;-88
2023/05/01 03:46:54;;;;;;;10.20;5.35;;;;;;;10.41;88.87;101504.97;4919908;29;20043;-88
2023/05/01 03:49:20;;;;;;;9.23;5.13;;;;;;;10.47;91.75;101504.88;4918563;29;20032;-88
2023/05/01 03:51:45;;;;;;;10.77;5.57;;;;;;;10.46;88.51;101499.72;4924449;29;20260;-88
2023/05/01 03:54:10;;;;;;;10.38;5.40;;;;;;;10.40;87.40;101490.28;4910818;29;20523;-88
2023/05/01 03:56:39;;;;;;;15.20;5.55;;;;;;;10.39;90.07;101485.97;4917323;29;20114;-88
2023/05/01 03:59:04;;;;;;;9.70;5.45;;;;;;;10.38;88.27;101486.84;4921120;29;20043;-88
2023/05/01 04:01:32;;;;;;;11.63;5.50;;;;;;;10.40;86.79;101494.63;4917111;29;20028;-88
2023/05/01 04:03:58;;;;;;;10.63;5.38;;;;;;;10.42;90.03;101492.88;4905551;29;20056;-88
2023/05/01 04:06:24;;;;;;;9.15;5.55;;;;;;;10.40;87.85;101489.44;4901204;29;20048;-88
2023/05/01 04:08:49;;;;;;;11.77;5.65;;;;;;;10.42;89.39;101487.69;4917425;29;20038;-88
2023/05/01 04:11:14;;;;;;;11.35;5.63;;;;;;;10.41;86.85;101486.81;4919098;29;20032;-88
2023/05/01 04:13:40;;;;;;;9.80;6.15;;;;;;;10.39;89.08;101491.16;4910255;29;20039;-88
2023/05/01 04:16:06;;;;;;;10.80;5.78;;;;;;;10.40;88.50;101486.84;4919614;29;20029;-88
2023/05/01 04:18:31;;;;;;;12.82;5.40;;;;;;;10.36;87.90;101469.63;4908042;29;20034;-88
2023/05/01 04:20:59;;;;;;;13.85;5.88;;;;;;;10.41;88.71;101479.06;4924599;29;20032;-88
2023/05/01 04:23:24;;;;;;;10.50;5.70;;;;;;;10.42;87.03;101490.28;4917888;29;20402;-88
2023/05/01 04:25:50;;;;;;;12.38;6.28;;;;;;;10.31;90.14;101461.88;4902244;29;20544;-88
2023/05/01 04:28:15;;;;;;;11.73;5.72;;;;;;;10.40;92.48;101469.56;4916370;29;20488;-88
2023/05/01 04:30:41;;;;;;;10.07;5.47;;;;;;;10.45;88.71;101477.25;4913005;29;20036;-88
2023/05/01 04:33:10;;;;;;;11.82;5.93;;;;;;;10.43;88.07;101473.84;4919908;29;20460;-88
2023/05/01 04:35:38;;;;;;;14.00;6.13;;;;;;;10.44;90.42;101478.16;4917851;29;20052;-88
2023/05/01 04:38:07;;;;;;;10.50;5.68;;;;;;;10.43;88.18;101479.03;4905432;29;20035;-89
2023/05/01 04:40:33;;;;;;;12.23;5.75;;;;;;;10.43;88.26;101473.84;4897556;29;20079;-88
2023/05/01 04:42:59;;;;;;;13.65;6.00;;;;;;;10.42;86.99;101470.41;4914652;29;20051;-88
2023/05/01 04:45:25;;;;;;;17.65;6.15;;;;;;;10.37;87.65;101463.56;4919301;29;20607;-88
2023/05/01 04:47:50;;;;;;;11.77;6.18;;;;;;;10.39;88.38;101467.84;4922503;29;20040;-88
2023/05/01 04:50:16;;;;;;;15.18;6.03;;;;;;;10.42;87.13;101473.00;4910657;29;20043;-88
2023/05/01 04:52:43;;;;;;;11.27;5.85;;;;;;;10.44;89.39;101471.22;4916657;29;20044;-88
2023/05/01 04:55:09;;;;;;;12.18;5.57;;;;;;;10.38;89.89;101471.31;4920397;29;20577;-89
2023/05/01 04:57:34;;;;;;;10.65;5.97;;;;;;;10.48;88.01;101480.69;4891037;29;20127;-89
2023/05/01 05:00:00;;;;;;;10.65;5.90;;;;;;;10.53;91.02;101493.56;4917487;29;20973;-88
2023/05/01 05:02:26;;;;;;;10.38;5.85;;;;;;;10.49;91.09;101490.19;4926490;29;20471;-88
2023/05/01 05:04:53;;;;;;;10.23;6.32;;;;;;;10.52;92.09;101482.34;4923466;29;20055;-88
2023/05/01 05:07:19;;;;;;;12.50;5.88;;;;;;;10.58;92.92;101484.84;4925764;29;20543;-88
2023/05/01 05:09:44;;;;;;;12.57;6.07;;;;;;;10.58;88.89;101494.38;4924870;29;20103;-88
2023/05/01 05:12:10;;;;;;;12.35;5.82;;;;;;;10.57;91.45;101492.69;4907787;29;20028;-88
2023/05/01 05:14:35;;;;;;;10.82;6.25;;;;;;;10.48;92.42;101472.06;4916026;29;20111;-88
2023/05/01 05:17:03;;;;;;;11.00;6.45;;;;;;;10.55;89.38;101487.50;4926532;29;20035;-88
2023/05/01 05:19:28;;;;;;;13.65;6.32;;;;;;;10.61;92.29;101495.19;4913799;29;20055;-88
2023/05/01 05:21:54;;;;;;;11.32;6.13;;;;;;;10.55;88.52;101484.91;4923275;29;20027;-88
2023/05/01 05:24:19;;;;;;;11.95;6.10;;;;;;;10.56;87.56;101483.19;4921471;29;20027;-88
2023/05/01 05:26:44;;;;;;;13.15;6.35;;;;;;;10.57;91.04;101484.91;4917992;29;20020;-88
2023/05/01 05:29:10;;;;;;;19.48;6.88;;;;;;;10.46;89.03;101468.63;4905677;29;20051;-87
2023/05/01 05:31:35;;;;;;;13.90;6.13;;;;;;;10.62;91.08;101494.31;4924229;29;20082;-88
2023/05/01 05:34:01;;;;;;;12.02;6.13;;;;;;;10.61;88.76;101481.38;4918248;29;20051;-88
2023/05/01 05:36:27;;;;;;;16.15;6.35;;;;;;;10.60;89.05;101474.47;4922953;29;20404;-88
2023/05/01 05:38:52;;;;;;;10.88;6.60;;;;;;;10.65;90.11;101467.47;4920882;29;20040;-88
2023/05/01 05:41:18;;;;;;;13.95;6.63;;;;;;;10.69;87.61;101479.53;4920730;29;20020;-88
2023/05/01 05:43:43;;;;;;;9.80;6.30;;;;;;;10.76;87.20;101481.16;4926505;29;20036;-88
2023/05/01 05:46:08;;;;;;;13.57;6.45;;;;;;;10.78;86.02;101483.75;4919534;29;20516;-88
2023/05/01 05:48:34;;;;;;;12.05;6.75;;;;;;;10.76;89.08;101470.81;4921803;29;20126;-88
2023/05/01 05:50:59;;;;;;;12.75;6.28;;;;;;;10.84;89.77;101481.94;4921837;29;20024;-88
2023/05/01 05:53:25;;;;;;;11.98;6.82;;;;;;;10.87;87.76;101474.09;4905902;29;20183;-88
2023/05/01 05:55:50;;;;;;;15.65;7.32;;;;;;;10.90;86.00;101481.84;4917665;29;20101;-88
2023/05/01 05:58:18;;;;;;;14.50;7.25;;;;;;;10.96;88.08;101473.09;4909116;29;20052;-88
2023/05/01 06:00:48;;;;;;;15.07;7.68;;;;;;;10.97;85.63;101461.84;4929207;29;20476;-88
2023/05/01 06:03:14;;;;;;;14.13;7.18;;;;;;;11.03;84.26;101470.38;4917607;29;20102;-88
2023/05/01 06:49:05;;;;;;;16.00;7.97;;;;;;;12.28;84.93;101440.38;5658200;23;20146;-88
2023/05/01 06:51:31;;;;;;;13.75;7.78;;;;;;;12.54;83.98;101454.59;4911016;29;20123;-88
2023/05/01 06:53:56;;;;;;;14.13;7.55;;;;;;;12.86;84.40;101459.06;4900359;29;20038;-88
2023/05/01 06:56:22;;;;;;;15.38;7.75;;;;;;;12.88;78.85;101450.34;4916049;29;20048;-88
2023/05/01 06:58:47;;;;;;;14.73;8.15;;;;;;;12.99;78.06;101463.94;4917960;29;20452;-88
2023/05/01 07:01:13;;;;;;;13.15;7.95;;;;;;;12.94;75.39;101454.53;4899702;29;20059;-87
2023/05/01 07:03:38;;;;;;;15.68;8.23;;;;;;;12.93;77.72;101456.28;4917479;29;20078;-88
2023/05/01 07:06:03;;;;;;;14.27;8.63;;;;;;;12.97;80.43;101457.06;4917091;29;20023;-88
2023/05/01 07:08:29;;;;;;;16.45;8.63;;;;;;;13.02;79.48;101450.88;4914980;29;20299;-87
2023/05/01 07:10:55;;;;;;;14.73;8.55;;;;;;;13.18;81.38;101459.19;4898849;29;20035;-87
2023/05/01 07:13:20;;;;;;;16.52;8.52;;;;;;;13.27;80.16;101458.09;4915203;29;20230;-87
2023/05/01 07:15:45;;;;;;;14.32;9.32;;;;;;;13.25;78.00;101454.66;4899695;29;20515;-87
2023/05/01 07:18:11;;;;;;;18.25;9.30;;;;;;;13.25;78.21;101452.94;4918169;29;20035;-88
2023/05/01 07:20:37;;;;;;;17.60;9.55;;;;;;;13.30;78.07;101445.88;4900783;29;20020;-87
2023/05/01 07:23:02;;;;;;;15.52;9.02;;;;;;;13.47;77.17;101452.38;4909794;29;20450;-87
2023/05/01 07:25:28;;;;;;;16.15;9.20;;;;;;;13.62;75.92;101455.44;4917332;29;20040;-88
2023/05/01 07:27:56;;;;;;;16.35;9.23;;;;;;;13.95;76.19;101451.06;4917756;29;20043;-88
2023/05/01 07:30:22;;;;;;;19.08;9.18;;;;;;;14.32;73.75;101452.63;4916257;29;20051;-89
2023/05/01 07:32:48;;;;;;;13.38;8.75;;;;;;;14.66;72.78;101448.16;4899835;29;20032;-89
2023/05/01 07:35:13;;;;;;;16.38;9.35;;;;;;;15.14;74.12;101444.88;4899356;29;20114;-89
2023/05/01 07:37:39;;;;;;;16.80;9.73;;;;;;;15.39;71.72;101448.38;4915540;29;20058;-90
2023/05/01 07:40:05;;;;;;;16.63;8.85;;;;;;;15.37;71.74;101444.94;4918744;29;20106;-90
2023/05/01 07:42:31;;;;;;;15.27;9.07;;;;;;;15.31;66.91;101446.00;4903402;29;20059;-89
2023/05/01 07:44:56;;;;;;;16.67;9.20;;;;;;;15.26;71.57;101442.72;4916382;29;20029;-89
2023/05/01 07:47:22;;;;;;;16.10;9.30;;;;;;;15.24;73.65;101439.28;4898810;29;20767;-89
2023/05/01 07:49:47;;;;;;;15.73;10.00;;;;;;;15.36;72.04;101451.94;4919478;29;20493;-89
2023/05/01 07:52:14;;;;;;;15.43;9.57;;;;;;;15.64;72.87;101444.03;4921703;29;20036;-89
2023/05/01 07:54:40;;;;;;;15.40;9.05;;;;;;;15.96;73.09;101444.66;4904383;29;20543;-89
2023/05/01 07:57:06;;;;;;;15.52;9.30;;;;;;;16.29;72.08;101451.25;4920278;29;20036;-89
2023/05/01 07:59:31;;;;;;;15.93;9.77;;;;;;;16.47;72.36;101447.94;4900094;29;20824;-88
2023/05/01 08:01:57;;;;;;;13.10;9.15;;;;;;;16.58;68.07;101450.16;4920520;29;20167;-88
2023/05/01 08:04:22;;;;;;;13.60;9.63;;;;;;;16.50;69.29;101432.13;4901739;29;20499;-88
2023/05/01 08:06:49;;;;;;;13.65;9.48;;;;;;;16.55;68.71;101429.31;4893731;29;20043;-88
2023/05/01 08:09:17;;;;;;;16.63;9.52;;;;;;;16.69;68.91;101434.06;4899578;29;20652;-88
2023/05/01 08:11:49;;;;;;;15.70;9.75;;;;;;;17.05;69.19;101445.69;4904816;29;20060;-88
2023/05/01 08:14:16;;;;;;;13.50;9.45;;;;;;;17.71;66.25;101425.41;4915175;29;20040;-88
2023/05/01 08:16:42;;;;;;;14.55;9.40;;;;;;;18.04;63.41;101429.16;4921560;29;20040;-89
2023/05/01 08:19:13;;;;;;;14.10;8.75;;;;;;;18.58;60.68;101442.44;4920462;29;20042;-88
2023/05/01 08:21:38;;;;;;;16.20;9.70;;;;;;;19.47;61.79;101438.03;4915844;29;20079;-89
2023/05/01 08:24:08;;;;;;;12.45;9.15;;;;;;;20.52;56.42;101424.53;4902450;29;20035;-87
2023/05/01 08:26:37;;;;;;;12.90;9.10;;;;;;;21.81;53.49;101422.22;4911588;29;20049;-87
2023/05/01 08:29:08;;;;;;;13.90;9.43;;;;;;;23.05;51.27;101416.03;4903675;29;20118;-88
2023/05/01 08:31:36;;;;;;;14.10;8.98;;;;;;;23.83;47.91;101419.50;4917300;29;20044;-88
2023/05/01 08:34:02;;;;;;;13.40;9.23;;;;;;;24.25;46.44;101413.00;4902756;29;20048;-88
2023/05/01 08:36:28;;;;;;;13.98;9.18;;;;;;;24.34;42.93;101430.91;4901701;29;20035;-88
2023/05/01 08:38:54;;;;;;;12.90;9.02;;;;;;;24.09;45.87;101409.69;4902150;29;20039;-88
2023/05/01 08:41:21;;;;;;;16.23;9.52;;;;;;;23.59;45.92;101408.81;4921203;29;20028;-87
2023/05/01 08:43:47;;;;;;;13.50;9.00;;;;;;;23.09;47.14;101412.22;4926866;29;20023;-88
2023/05/01 08:46:24;;;;;;;13.68;9.05;;;;;;;22.50;48.95;101423.19;4925073;29;20020;-87
2023/05/01 08:48:51;;;;;;;13.23;9.07;;;;;;;21.95;48.28;101413.44;4922264;29;20109;-87
2023/05/01 08:51:18;;;;;;;14.32;9.25;;;;;;;21.62;48.44;101421.63;4922363;29;20032;-88
2023/05/01 08:53:49;;;;;;;14.20;9.15;;;;;;;21.37;52.36;101426.66;4919289;29;20056;-88
2023/05/01 08:56:15;;;;;;;12.25;9.10;;;;;;;21.32;51.42;101431.38;4920346;29;20036;-87
2023/05/01 08:58:44;;;;;;;14.50;9.90;;;;;;;21.21;51.77;101424.97;4905508;29;20028;-87
2023/05/01 09:01:14;;;;;;;13.15;10.00;;;;;;;21.02;53.34;101433.97;4918758;29;20039;-88
2023/05/01 09:03:41;;;;;;;18.13;9.48;;;;;;;20.86;53.93;101419.06;4903001;29;20067;-87
2023/05/01 09:06:08;;;;;;;14.70;8.80;;;;;;;20.79;50.88;101422.13;4903342;29;20043;-87
2023/05/01 09:08:33;;;;;;;14.77;9.20;;;;;;;20.76;50.71;101435.47;4921350;29;20035;-88
2023/05/01 09:11:00;;;;;;;14.40;9.38;;;;;;;20.74;51.82;101435.56;4919154;29;20028;-89
2023/05/01 09:13:28;;;;;;;12.50;9.55;;;;;;;20.77;53.40;101421.34;4921316;29;20528;-89
2023/05/01 09:15:54;;;;;;;12.35;9.38;;;;;;;20.76;53.07;101435.47;4895378;29;20539;-89
2023/05/01 09:18:20;;;;;;;13.43;8.57;;;;;;;20.64;52.29;101430.88;4918591;29;20027;-87
2023/05/01 09:20:46;;;;;;;12.25;7.55;;;;;;;20.38;50.21;101433.19;4919300;29;20074;-87
2023/05/01 09:23:11;;;;;;;12.95;8.48;;;;;;;20.15;51.43;101433.56;4918560;29;20055;-87
2023/05/01 09:25:37;;;;;;;12.50;8.93;;;;;;;20.03;52.99;101436.84;4918389;29;20170;-87
2023/05/01 09:28:06;;;;;;;13.98;8.98;;;;;;;19.92;53.54;101433.94;4918410;29;20039;-87
2023/05/01 09:30:37;;;;;;;15.50;9.57;;;;;;;19.78;50.14;101434.69;4918255;29;20036;-87
2023/05/01 09:33:09;;;;;;;11.68;8.43;;;;;;;19.84;53.99;101441.41;4917321;29;20031;-87
2023/05/01 09:35:52;;;;;;;13.82;9.43;;;;;;;19.92;55.76;101429.53;4900826;29;20038;-88
2023/05/01 09:38:19;;;;;;;14.18;9.63;;;;;;;20.00;52.10;101432.59;4917231;29;20031;-88
2023/05/01 09:40:45;;;;;;;14.05;9.40;;;;;;;20.16;50.13;101427.38;4919315;29;20058;-92
2023/05/01 09:43:11;;;;;;;15.85;9.68;;;;;;;20.44;53.85;101424.94;4917278;29;20023;-92
2023/05/01 09:45:38;;;;;;;11.80;9.82;;;;;;;20.55;52.66;101429.59;4919920;29;20028;-91
2023/05/01 09:48:11;;;;;;;13.98;9.73;;;;;;;20.40;52.59;101425.22;4917934;29;20023;-91
2023/05/01 09:50:40;;;;;;;12.57;9.90;;;;;;;20.26;52.24;101425.09;4883976;29;1090109;-92
2023/05/01 09:53:06;;;;;;;12.57;9.90;;;;;;;20.08;51.32;101432.19;4922373;29;20110;-90
2023/05/01 09:55:33;;;;;;;13.95;10.35;;;;;;;19.82;52.10;101430.09;4923057;29;20947;-91
2023/05/01 09:57:58;;;;;;;15.02;10.48;;;;;;;19.70;50.71;101426.34;4905080;29;20028;-92
2023/05/01 10:00:24;;;;;;;14.10;9.85;;;;;;;19.72;52.46;101420.03;4903688;29;20054;-92
2023/05/01 10:02:50;;;;;;;16.42;10.40;;;;;;;19.83;52.47;101423.91;4921629;29;20051;-92
2023/05/01 10:05:17;;;;;;;14.85;10.35;;;;;;;19.85;53.37;101422.91;4924094;29;20028;-92
2023/05/01 10:07:57;;;;;;;32.88;11.20;;;;;;;20.19;56.13;101426.34;4922641;29;20035;-91
2023/05/01 10:10:23;;;;;;;12.73;10.23;;;;;;;20.34;53.71;101431.66;4923145;29;20042;-92
2023/05/01 10:12:49;;;;;;;12.90;10.32;;;;;;;20.49;54.26;101432.59;4923716;29;20043;-92
2023/05/01 10:15:15;;;;;;;13.95;10.10;;;;;;;20.59;53.60;101430.31;4921087;29;20103;-92
2023/05/01 10:17:42;;;;;;;14.05;9.27;;;;;;;20.86;51.76;101426.97;4921828;29;20068;-93
2023/05/01 10:20:11;;;;;;;12.77;9.70;;;;;;;20.93;47.50;101424.81;4925263;29;20050;-92
2023/05/01 10:22:36;;;;;;;15.60;10.00;;;;;;;21.01;48.94;101427.88;4922107;29;20031;-92
2023/05/01 10:25:06;;;;;;;13.55;9.63;;;;;;;21.06;49.74;101433.72;4903866;29;20155;-94
2023/05/01 10:27:33;;;;;;;13.43;9.23;;;;;;;21.19;50.50;101428.59;4925344;29;20036;-93
2023/05/01 10:30:03;;;;;;;13.80;9.82;;;;;;;21.07;50.68;101419.59;4925031;29;20035;-93
2023/05/01 10:32:31;;;;;;;11.57;9.00;;;;;;;20.95;50.57;101436.09;4920414;29;20035;-95
2023/05/01 10:35:03;;;;;;;18.20;10.95;;;;;;;20.79;50.90;101438.78;4922021;29;20416;-94
2023/05/01 10:37:36;;;;;;;14.65;9.57;;;;;;;20.81;49.93;101438.72;4923170;29;20043;-93
2023/05/01 10:40:39;;;;;;;15.82;9.73;;;;;;;20.86;51.32;101436.66;4921767;29;20061;-93
2023/05/01 10:43:26;;;;;;;12.13;9.10;;;;;;;20.76;53.96;101428.41;4921840;29;20038;-93
2023/05/01 10:45:52;;;;;;;15.13;9.73;;;;;;;20.80;54.37;101437.00;4904508;29;20035;-94
2023/05/01 10:48:36;;;;;;;14.25;9.32;;;;;;;20.85;53.92;101432.31;4903128;29;20036;-93
2023/05/01 10:51:26;;;;;;;16.35;9.32;;;;;;;20.84;52.85;101434.09;4916918;29;20596;-92
2023/05/01 10:54:22;;;;;;;15.27;9.60;;;;;;;20.83;51.97;101434.19;4912545;29;20075;-93
2023/05/01 10:56:47;;;;;;;14.57;10.40;;;;;;;20.64;50.81;101422.97;4909756;29;20118;-91
2023/05/01 10:59:13;;;;;;;15.07;9.75;;;;;;;20.59;51.46;101428.53;4903861;29;20110;-93
2023/05/01 11:01:40;;;;;;;16.75;9.75;;;;;;;20.48;50.40;101426.47;4920044;29;20036;-92
2023/05/01 11:04:26;;;;;;;12.75;9.40;;;;;;;20.40;51.39;101422.59;4919524;29;20036;-91
2023/05/01 11:07:04;;;;;;;17.67;10.10;;;;;;;20.30;51.78;101429.25;4919086;29;20126;-91
2023/05/01 11:09:43;;;;;;;14.93;9.88;;;;;;;20.13;52.29;101428.38;4902548;29;20055;-88
2023/05/01 11:12:11;;;;;;;14.70;9.90;;;;;;;20.06;55.28;101411.19;4909232;29;20044;-88
2023/05/01 11:15:06;;;;;;;13.93;9.90;;;;;;;20.22;53.85;101428.81;4919217;29;20424;-88
2023/05/01 11:17:41;;;;;;;13.35;9.73;;;;;;;20.15;54.78;101428.28;4901841;29;20032;-88
2023/05/01 11:20:11;;;;;;;14.93;9.73;;;;;;;19.99;52.78;101433.53;4918039;29;20028;-88
2023/05/01 11:22:41;;;;;;;14.38;9.65;;;;;;;19.93;53.26;101427.72;4917188;29;20059;-88
2023/05/01 11:25:21;;;;;;;15.23;9.80;;;;;;;19.88;53.48;101433.25;4902065;29;20072;-88
2023/05/01 11:27:51;;;;;;;14.00;9.45;;;;;;;19.87;54.08;101435.97;4901838;29;20043;-88
2023/05/01 11:30:17;;;;;;;15.77;9.32;;;;;;;19.91;53.07;101425.22;4918381;29;20039;-88
2023/05/01 11:32:45;;;;;;;13.23;9.32;;;;;;;19.99;55.07;101430.06;4903095;29;20027;-89
2023/05/01 11:35:19;;;;;;;14.98;9.27;;;;;;;20.23;54.12;101434.00;4917879;29;20042;-89
2023/05/01 11:37:45;;;;;;;15.35;9.30;;;;;;;20.31;54.09;101436.22;4916647;29;20035;-88
2023/05/01 11:40:30;;;;;;;13.98;9.45;;;;;;;20.23;53.41;101444.53;4901899;29;20034;-88
2023/05/01 11:42:59;;;;;;;13.93;9.27;;;;;;;20.05;54.54;101440.25;4900020;29;20032;-88
2023/05/01 11:45:25;;;;;;;13.20;9.52;;;;;;;20.02;53.32;101443.03;4916605;29;20469;-88
2023/05/01 11:47:50;;;;;;;13.80;9.35;;;;;;;19.82;52.95;101444.09;4916856;29;20565;-92
2023/05/01 11:50:16;;;;;;;12.13;9.00;;;;;;;19.77;53.44;101440.03;4916897;29;20099;-93
2023/05/01 11:52:43;;;;;;;11.07;9.07;;;;;;;19.83;54.29;101445.81;4917584;29;20284;-91
2023/05/01 11:55:09;;;;;;;14.32;9.18;;;;;;;19.99;51.48;101436.16;4916267;29;20059;-91
2023/05/01 11:57:46;;;;;;;14.15;9.57;;;;;;;20.00;52.64;101437.84;4916805;29;20027;-91
2023/05/01 12:00:13;;;;;;;13.70;8.93;;;;;;;20.08;50.68;101440.94;4915867;29;20062;-92
2023/05/01 12:02:39;;;;;;;15.52;9.18;;;;;;;20.11;52.21;101437.28;4917649;29;20042;-91
2023/05/01 12:05:19;;;;;;;13.25;8.07;;;;;;;20.26;52.39;101444.38;4915250;29;20024;-91
2023/05/01 12:07:44;;;;;;;13.93;7.90;;;;;;;20.31;50.71;101447.59;4916425;29;20111;-92